Terminal Aerodrome Forecast
Issued by NWS Nashville, TN

Home | Current Version | Previous Version | Text Only | Print | Product List | Glossary On
Versions: 1 2 3 4 5 6 7 8 9 10 11 12 13
506
FTUS44 KOHX 081720
TAFBNA
TAF
KBNA 081720Z 0818/0918 29010G18KT P6SM SCT045 OVC060
      TEMPO 0818/0822 5SM -RASN
     FM082200 28011G21KT 5SM -SN OVC035
     FM091100 30008KT 6SM -SN OVC025=

USA.gov is the U.S. government's official web portal to all federal, state and local government web resources and services.